»·PEaware :: N275ND KSNA-KCRQ

N275ND :: KSNA-KCRQ

FLIGHT INFORMATION

Flight Status: Arrived
Operator: Privately registered:
United States
More flights under this callsign
Pilot: John A. (19135)
Aircraft: CESSNA 172 SKYHAWK
(C172)
More flights by this aircraft type
Origin: KSNA John Wayne-Orange Co
United States
Destination: KCRQ McClellan-Palomar
United States
More flights between these airports :: More routes between these airports
Route: +V23 OCN
File this flight plan on PilotEdge
Remarks: I-2 Rating
Altitude:
(Current/Filed)
5,000ft
Speed:
(Current/Filed)
115kts
Departed: 29-Jul-19 10:09 AM
Arrived: 29-Jul-19 10:48 AM
Distance/Time
Traveled:
44nm/0:38
Distance/Time
To Go:
Arrived

Flight Plot

Page will automatically refresh every two minutes.


Map Options




Map Legend


Flown Route
Filed Route
Departure Airport
Arrival Airport
Navaid (VOR, NDB)
Fix

Horizontal Profiles

Position Reports

Time Latitude Longitude Heading Altitude Ground
Speed
29-Jul-19 09:47 33.668086 -117.871025 221 60ft 0kts
29-Jul-19 09:48 33.668086 -117.871025 221 60ft 0kts
29-Jul-19 09:49 33.668086 -117.871025 221 60ft 0kts
29-Jul-19 09:50 33.668086 -117.871025 221 60ft 0kts
29-Jul-19 09:51 33.668086 -117.871025 221 60ft 0kts
29-Jul-19 09:52 33.668086 -117.871025 221 60ft 0kts
29-Jul-19 09:53 33.668086 -117.871025 221 60ft 0kts
29-Jul-19 09:54 33.668086 -117.871025 221 60ft 0kts
29-Jul-19 09:55 33.668086 -117.871025 221 60ft 0kts
29-Jul-19 09:56 33.668086 -117.871025 221 60ft 0kts
29-Jul-19 09:57 33.668083 -117.871029 223 60ft 0kts
29-Jul-19 09:58 33.669214 -117.870798 42 60ft 24kts
29-Jul-19 09:59 33.672960 -117.867431 47 60ft 17kts
29-Jul-19 10:01 33.677234 -117.865120 21 60ft 11kts
29-Jul-19 10:02 33.679237 -117.863796 28 60ft 15kts
29-Jul-19 10:03 33.679987 -117.863655 303 60ft 0kts
29-Jul-19 10:04 33.680035 -117.863742 303 60ft 0kts
29-Jul-19 10:05 33.680084 -117.863831 303 60ft 0kts
29-Jul-19 10:06 33.679942 -117.863562 305 60ft 0kts
29-Jul-19 10:07 33.679942 -117.863562 305 60ft 0kts
29-Jul-19 10:08 33.679747 -117.864430 203 60ft 29kts
29-Jul-19 10:09 33.664943 -117.877587 192 805ft 71kts
29-Jul-19 10:10 33.641890 -117.880689 188 1641ft 86kts
29-Jul-19 10:11 33.618752 -117.883832 176 2529ft 84kts
29-Jul-19 10:12 33.595414 -117.887420 196 3336ft 86kts
29-Jul-19 10:13 33.571723 -117.891974 188 4155ft 87kts
29-Jul-19 10:14 33.560214 -117.868801 110 4845ft 95kts
29-Jul-19 10:15 33.548790 -117.835698 119 5059ft 120kts
29-Jul-19 10:16 33.535932 -117.798366 100 5038ft 124kts
29-Jul-19 10:17 33.521714 -117.761116 117 5116ft 118kts
29-Jul-19 10:18 33.504645 -117.727086 146 4995ft 130kts
29-Jul-19 10:18 33.482838 -117.703357 127 4928ft 126kts
29-Jul-19 10:20 33.452066 -117.671967 132 4946ft 120kts
29-Jul-19 10:21 33.430557 -117.643369 129 5113ft 120kts
29-Jul-19 10:21 33.410083 -117.620125 139 5095ft 123kts
29-Jul-19 10:23 33.379094 -117.588995 124 5002ft 127kts
29-Jul-19 10:23 33.360318 -117.561625 135 4914ft 127kts
29-Jul-19 10:24 33.335246 -117.533974 146 4929ft 123kts
29-Jul-19 10:26 33.304720 -117.504736 142 5009ft 122kts
29-Jul-19 10:26 33.288990 -117.478364 103 4968ft 126kts
29-Jul-19 10:27 33.280991 -117.437812 99 4933ft 125kts
29-Jul-19 10:28 33.270085 -117.398437 107 4941ft 122kts
29-Jul-19 10:29 33.262625 -117.359039 105 5007ft 122kts
29-Jul-19 10:30 33.252920 -117.320126 110 5051ft 122kts
29-Jul-19 10:31 33.243915 -117.281049 104 5057ft 126kts
29-Jul-19 10:32 33.233602 -117.240904 101 4976ft 126kts
29-Jul-19 10:33 33.224819 -117.200553 92 4834ft 133kts
29-Jul-19 10:34 33.219387 -117.160331 101 4998ft 117kts
29-Jul-19 10:35 33.215850 -117.121708 101 5000ft 114kts
29-Jul-19 10:36 33.211248 -117.083767 100 4985ft 116kts
29-Jul-19 10:37 33.205780 -117.045940 102 4998ft 115kts
29-Jul-19 10:38 33.186221 -117.036325 241 4923ft 111kts
29-Jul-19 10:39 33.170482 -117.067990 235 4384ft 112kts
29-Jul-19 10:40 33.156731 -117.099920 258 3922ft 90kts
29-Jul-19 10:41 33.152607 -117.129765 249 3423ft 76kts
29-Jul-19 10:42 33.147760 -117.159941 259 2650ft 99kts
29-Jul-19 10:43 33.143629 -117.190922 261 1858ft 93kts
29-Jul-19 10:44 33.138149 -117.220097 266 1277ft 83kts
29-Jul-19 10:45 33.133934 -117.248027 266 803ft 76kts
29-Jul-19 10:46 33.129650 -117.271867 261 387ft 67kts
29-Jul-19 10:47 33.127628 -117.279906 217 335ft 0kts
29-Jul-19 10:48 33.127158 -117.281659 262 335ft 24kts
29-Jul-19 10:49 33.126395 -117.283600 84 335ft 0kts
29-Jul-19 10:50 33.126395 -117.283600 84 335ft 0kts
29-Jul-19 10:51 33.126395 -117.283600 84 335ft 0kts
29-Jul-19 10:52 33.126395 -117.283600 84 335ft 0kts
29-Jul-19 10:53 33.126395 -117.283600 84 335ft 0kts
29-Jul-19 10:54 33.126395 -117.283600 84 335ft 0kts
29-Jul-19 10:55 33.126395 -117.283600 84 335ft 0kts
29-Jul-19 10:56 33.126395 -117.283600 84 335ft 0kts

Navigation Log

Ident Type
Flight plan parsing failed, navigation log unavailable